Time;durP1;ratioP1;P1;durP2;ratioP2;P2;SDS_P1;SDS_P2;PMS_P1;PMS_P2;Temp;Humidity;BMP_temperature;BMP_pressure;BME280_temperature;BME280_humidity;BME280_pressure;Samples;Min_cycle;Max_cycle;Signal;HPM_P1;HPM_P2
2022/10/14 00:01:50;;;;;;;45.35;20.63;;;;;;;;;;5003103;28;20037;-89
2022/10/14 00:04:16;;;;;;;38.67;19.88;;;;;;;;;;5006406;28;20033;-91
2022/10/14 00:06:42;;;;;;;45.95;20.92;;;;;;;;;;4993664;28;20102;-90
2022/10/14 00:09:09;;;;;;;54.10;19.55;;;;;;;;;;4994485;28;20084;-90
2022/10/14 00:11:35;;;;;;;48.30;20.83;;;;;;;;;;5006164;28;20176;-91
2022/10/14 00:14:10;;;;;;;36.70;17.23;;;;;;;;;;5021808;28;21217;-90
2022/10/14 00:16:38;;;;;;;66.63;23.20;;;;;;;;;;5003208;28;20481;-91
2022/10/14 00:19:05;;;;;;;92.97;27.15;;;;;;;;;;5007825;28;20041;-91
2022/10/14 00:21:31;;;;;;;128.82;27.55;;;;;;;;;;5008144;28;20033;-91
2022/10/14 00:23:58;;;;;;;140.57;29.55;;;;;;;;;;5009423;28;20021;-92
2022/10/14 00:26:25;;;;;;;108.07;29.15;;;;;;;;;;5005752;28;20564;-92
2022/10/14 00:28:51;;;;;;;209.00;32.50;;;;;;;;;;5008998;28;20662;-91
2022/10/14 00:31:18;;;;;;;165.25;34.13;;;;;;;;;;4992258;28;20153;-91
2022/10/14 00:33:44;;;;;;;314.80;41.33;;;;;;;;;;5004170;28;20022;-92
2022/10/14 00:36:11;;;;;;;287.90;38.70;;;;;;;;;;5007938;28;20026;-92
2022/10/14 00:38:37;;;;;;;360.63;42.72;;;;;;;;;;5024431;28;20147;-91
2022/10/14 00:41:04;;;;;;;300.70;40.83;;;;;;;;;;5007204;28;20033;-91
2022/10/14 00:43:50;;;;;;;253.95;37.20;;;;;;;;;;5005953;28;20037;-91
2022/10/14 00:46:16;;;;;;;183.52;32.63;;;;;;;;;;5022500;28;20061;-91
2022/10/14 00:48:42;;;;;;;283.17;37.92;;;;;;;;;;5022528;28;20041;-90
2022/10/14 00:51:15;;;;;;;235.77;37.50;;;;;;;;;;5008609;28;20292;-91
2022/10/14 00:53:42;;;;;;;206.57;35.72;;;;;;;;;;5009163;28;20034;-92
2022/10/14 00:56:23;;;;;;;193.25;35.17;;;;;;;;;;5005617;28;20103;-92
2022/10/14 00:58:50;;;;;;;208.10;35.70;;;;;;;;;;4998606;28;20028;-91
2022/10/14 01:01:16;;;;;;;180.73;34.72;;;;;;;;;;5000656;28;20069;-91
2022/10/14 01:03:42;;;;;;;287.42;42.80;;;;;;;;;;4986493;28;20030;-92
2022/10/14 01:06:08;;;;;;;231.70;37.80;;;;;;;;;;5002642;28;20030;-91
2022/10/14 01:08:48;;;;;;;325.27;45.00;;;;;;;;;;4998981;28;20038;-91
2022/10/14 01:11:23;;;;;;;222.77;36.20;;;;;;;;;;5019377;28;20035;-91
2022/10/14 01:14:08;;;;;;;175.25;32.05;;;;;;;;;;5017325;28;20027;-91
2022/10/14 01:16:45;;;;;;;115.85;23.88;;;;;;;;;;4999135;28;20034;-92
2022/10/14 01:19:26;;;;;;;162.65;24.25;;;;;;;;;;5017511;28;20351;-91
2022/10/14 01:21:55;;;;;;;148.68;25.77;;;;;;;;;;5000768;28;20144;-91
2022/10/14 01:24:40;;;;;;;141.50;22.75;;;;;;;;;;5002382;28;20064;-92
2022/10/14 01:27:06;;;;;;;279.38;29.55;;;;;;;;;;5003522;28;20058;-92
2022/10/14 01:29:44;;;;;;;143.20;22.42;;;;;;;;;;5004054;28;20462;-90
2022/10/14 01:32:16;;;;;;;134.38;18.67;;;;;;;;;;4998158;28;20537;-90
2022/10/14 01:34:47;;;;;;;134.02;16.33;;;;;;;;;;5005173;28;20030;-90
2022/10/14 01:37:17;;;;;;;231.90;22.45;;;;;;;;;;5014505;28;20177;-91
2022/10/14 01:39:52;;;;;;;104.20;19.77;;;;;;;;;;5006814;28;20056;-91
2022/10/14 01:42:20;;;;;;;201.98;21.42;;;;;;;;;;5007650;28;20306;-91
2022/10/14 01:44:52;;;;;;;188.70;22.13;;;;;;;;;;5012643;28;20038;-91
2022/10/14 01:47:19;;;;;;;100.82;17.30;;;;;;;;;;5022054;28;20113;-91
2022/10/14 01:49:48;;;;;;;251.73;26.05;;;;;;;;;;5027667;28;20068;-90
2022/10/14 01:52:21;;;;;;;271.40;24.67;;;;;;;;;;5009883;28;20030;-92
2022/10/14 01:54:48;;;;;;;198.52;22.58;;;;;;;;;;5010272;28;20084;-92
2022/10/14 01:57:16;;;;;;;157.80;22.20;;;;;;;;;;5029798;28;20072;-92
2022/10/14 01:59:43;;;;;;;136.88;22.08;;;;;;;;;;5025861;28;20052;-91
2022/10/14 02:02:11;;;;;;;258.83;28.55;;;;;;;;;;5010392;28;20099;-92
2022/10/14 02:04:37;;;;;;;222.43;24.17;;;;;;;;;;5032098;28;20033;-92
2022/10/14 02:07:05;;;;;;;184.50;18.80;;;;;;;;;;5015639;28;20554;-91
2022/10/14 02:09:38;;;;;;;167.15;19.80;;;;;;;;;;5016768;28;20565;-92
2022/10/14 02:12:11;;;;;;;190.27;22.17;;;;;;;;;;5010694;28;20032;-92
2022/10/14 02:14:37;;;;;;;220.68;22.77;;;;;;;;;;5012661;28;20059;-92
2022/10/14 02:17:06;;;;;;;130.13;20.30;;;;;;;;;;5029276;28;20728;-92
2022/10/14 02:19:39;;;;;;;87.13;16.83;;;;;;;;;;5009347;28;20396;-90
2022/10/14 02:22:11;;;;;;;178.48;19.45;;;;;;;;;;5029138;28;20080;-92
2022/10/14 02:24:40;;;;;;;252.27;24.38;;;;;;;;;;5031693;28;20041;-92
2022/10/14 02:27:08;;;;;;;167.07;19.30;;;;;;;;;;5011089;28;20387;-90
2022/10/14 02:29:35;;;;;;;281.98;27.67;;;;;;;;;;5028019;28;20124;-91
2022/10/14 02:32:02;;;;;;;147.85;18.35;;;;;;;;;;5013620;28;20105;-91
2022/10/14 02:34:28;;;;;;;168.77;20.73;;;;;;;;;;5011356;28;20041;-90
2022/10/14 02:36:55;;;;;;;164.32;18.30;;;;;;;;;;5009376;28;20038;-90
2022/10/14 02:39:24;;;;;;;206.32;18.85;;;;;;;;;;5010089;28;20064;-90
2022/10/14 02:41:50;;;;;;;120.20;19.48;;;;;;;;;;5011651;28;20026;-90
2022/10/14 02:44:16;;;;;;;109.10;15.77;;;;;;;;;;4992635;28;20041;-90
2022/10/14 02:46:42;;;;;;;114.10;16.17;;;;;;;;;;4993194;28;20072;-90
2022/10/14 02:49:09;;;;;;;143.20;18.13;;;;;;;;;;5024514;28;20068;-90
2022/10/14 02:51:35;;;;;;;106.88;15.15;;;;;;;;;;4989701;28;20465;-90
2022/10/14 02:54:01;;;;;;;134.73;16.50;;;;;;;;;;4997171;28;20124;-91
2022/10/14 02:56:27;;;;;;;126.78;17.05;;;;;;;;;;5008936;28;20065;-91
2022/10/14 02:58:53;;;;;;;201.93;21.80;;;;;;;;;;5010660;28;20497;-91
2022/10/14 03:01:19;;;;;;;157.55;15.68;;;;;;;;;;5028093;28;20088;-91
2022/10/14 03:03:45;;;;;;;129.73;15.68;;;;;;;;;;5010454;28;20087;-91
2022/10/14 03:06:11;;;;;;;142.90;17.17;;;;;;;;;;5010601;28;20128;-90
2022/10/14 03:08:37;;;;;;;157.30;17.30;;;;;;;;;;5011825;28;20416;-90
2022/10/14 03:11:03;;;;;;;94.95;13.13;;;;;;;;;;5013305;28;20521;-91
2022/10/14 03:13:29;;;;;;;141.88;14.50;;;;;;;;;;4997469;28;20128;-92
2022/10/14 03:15:55;;;;;;;106.72;14.05;;;;;;;;;;4997306;28;20120;-91
2022/10/14 03:18:21;;;;;;;80.55;12.57;;;;;;;;;;5009963;28;20041;-91
2022/10/14 03:20:47;;;;;;;84.20;13.30;;;;;;;;;;4999124;28;20044;-92
2022/10/14 03:23:14;;;;;;;43.47;8.50;;;;;;;;;;4995204;28;20029;-93
2022/10/14 03:25:40;;;;;;;115.32;15.45;;;;;;;;;;5010663;28;20033;-92
2022/10/14 03:28:06;;;;;;;166.35;17.27;;;;;;;;;;5011278;28;20042;-91
2022/10/14 03:30:32;;;;;;;141.35;16.13;;;;;;;;;;4989451;28;20056;-90
2022/10/14 03:32:58;;;;;;;70.20;12.13;;;;;;;;;;4994429;28;20088;-91
2022/10/14 03:35:24;;;;;;;88.00;10.10;;;;;;;;;;4994343;28;20076;-91
2022/10/14 03:37:52;;;;;;;112.25;11.57;;;;;;;;;;4996956;28;20152;-91
2022/10/14 03:40:18;;;;;;;94.20;12.27;;;;;;;;;;4993239;28;20041;-91
2022/10/14 03:42:44;;;;;;;115.72;12.27;;;;;;;;;;4989681;28;20027;-91
2022/10/14 03:45:10;;;;;;;70.65;11.45;;;;;;;;;;5010108;28;20040;-91
2022/10/14 03:47:36;;;;;;;152.52;14.52;;;;;;;;;;4993593;28;20049;-91
2022/10/14 03:50:03;;;;;;;104.82;13.82;;;;;;;;;;5011311;28;20505;-91
2022/10/14 03:52:30;;;;;;;106.55;14.00;;;;;;;;;;5013950;28;20037;-91
2022/10/14 03:54:56;;;;;;;84.55;13.07;;;;;;;;;;5007087;28;20116;-91
2022/10/14 03:57:22;;;;;;;148.32;12.88;;;;;;;;;;5028829;28;20116;-90
2022/10/14 03:59:48;;;;;;;185.40;15.38;;;;;;;;;;5008786;28;20049;-90
2022/10/14 04:02:14;;;;;;;68.30;10.70;;;;;;;;;;5011053;28;20064;-91
2022/10/14 04:04:40;;;;;;;94.68;11.60;;;;;;;;;;5016199;28;20033;-92
2022/10/14 04:07:06;;;;;;;76.85;9.90;;;;;;;;;;5009848;28;20037;-91
2022/10/14 04:09:32;;;;;;;51.40;11.52;;;;;;;;;;4999023;28;20045;-91
2022/10/14 04:11:59;;;;;;;111.65;12.82;;;;;;;;;;5010405;28;20041;-91
2022/10/14 04:14:25;;;;;;;95.05;11.90;;;;;;;;;;5011479;28;20235;-91
2022/10/14 04:16:51;;;;;;;97.97;13.02;;;;;;;;;;5024765;28;20125;-89
2022/10/14 04:19:18;;;;;;;57.78;10.45;;;;;;;;;;4993859;28;20475;-91
2022/10/14 04:21:44;;;;;;;77.13;12.07;;;;;;;;;;5027806;28;20029;-90
2022/10/14 04:24:11;;;;;;;95.38;12.48;;;;;;;;;;5007027;28;20684;-91
2022/10/14 04:26:37;;;;;;;93.40;23.50;;;;;;;;;;5005004;28;20121;-91
2022/10/14 04:29:03;;;;;;;101.25;16.38;;;;;;;;;;5007904;28;20112;-91
2022/10/14 04:31:29;;;;;;;93.25;14.82;;;;;;;;;;4994277;28;20087;-92
2022/10/14 04:33:55;;;;;;;59.95;12.30;;;;;;;;;;5008223;28;20021;-91
2022/10/14 04:36:21;;;;;;;71.70;13.98;;;;;;;;;;4994245;28;20088;-91
2022/10/14 04:38:47;;;;;;;62.75;12.70;;;;;;;;;;5028172;28;20491;-92
2022/10/14 04:41:13;;;;;;;75.60;14.30;;;;;;;;;;5010606;28;20120;-91
2022/10/14 04:43:39;;;;;;;59.03;12.35;;;;;;;;;;5010722;28;20041;-91
2022/10/14 04:46:06;;;;;;;79.93;14.85;;;;;;;;;;4995146;28;20457;-91
2022/10/14 04:48:32;;;;;;;88.90;15.95;;;;;;;;;;4995494;28;20461;-92
2022/10/14 04:50:58;;;;;;;93.95;16.50;;;;;;;;;;5009224;28;20033;-92
2022/10/14 04:53:24;;;;;;;54.78;12.63;;;;;;;;;;5009168;28;20034;-91
2022/10/14 04:56:02;;;;;;;85.60;16.17;;;;;;;;;;5002543;28;20699;-92
2022/10/14 04:58:29;;;;;;;50.40;8.07;;;;;;;;;;5023124;28;20048;-90
2022/10/14 05:00:55;;;;;;;56.35;11.25;;;;;;;;;;5009349;28;20029;-90
2022/10/14 05:03:21;;;;;;;46.80;9.43;;;;;;;;;;5006331;28;20044;-89
2022/10/14 05:05:47;;;;;;;100.78;12.98;;;;;;;;;;4990949;28;20033;-91
2022/10/14 05:08:13;;;;;;;110.35;15.32;;;;;;;;;;4994676;28;20030;-91
2022/10/14 05:10:39;;;;;;;69.22;11.85;;;;;;;;;;4993211;28;20030;-91
2022/10/14 05:13:05;;;;;;;61.58;12.68;;;;;;;;;;5011563;28;20041;-91
2022/10/14 05:15:31;;;;;;;69.07;11.85;;;;;;;;;;4993437;28;20040;-91
2022/10/14 05:17:57;;;;;;;78.68;13.55;;;;;;;;;;4992893;28;20041;-91
2022/10/14 05:20:23;;;;;;;87.72;15.52;;;;;;;;;;5012477;28;20029;-90
2022/10/14 05:22:49;;;;;;;65.63;13.32;;;;;;;;;;5001852;28;20030;-91
2022/10/14 05:25:15;;;;;;;46.65;10.95;;;;;;;;;;5002065;28;20080;-91
2022/10/14 05:27:41;;;;;;;60.40;11.77;;;;;;;;;;5002742;28;20428;-90
2022/10/14 05:30:08;;;;;;;85.65;13.13;;;;;;;;;;5015886;28;20034;-91
2022/10/14 05:32:37;;;;;;;88.88;12.68;;;;;;;;;;5029959;28;20018;-90
2022/10/14 05:35:03;;;;;;;73.03;13.10;;;;;;;;;;4999689;28;20033;-90
2022/10/14 05:37:29;;;;;;;55.92;9.75;;;;;;;;;;5024165;28;20055;-89
2022/10/14 05:39:55;;;;;;;61.90;11.38;;;;;;;;;;5019152;28;20503;-89
2022/10/14 05:42:21;;;;;;;106.40;14.13;;;;;;;;;;4993328;28;20045;-89
2022/10/14 05:44:47;;;;;;;142.57;15.95;;;;;;;;;;5015725;28;20483;-92
2022/10/14 05:47:14;;;;;;;97.85;14.00;;;;;;;;;;5010767;28;20388;-89
2022/10/14 05:49:40;;;;;;;139.13;17.08;;;;;;;;;;5032525;28;20040;-89
2022/10/14 05:52:06;;;;;;;70.65;12.68;;;;;;;;;;4998661;28;20030;-89
2022/10/14 05:54:32;;;;;;;82.55;12.65;;;;;;;;;;5003428;28;20611;-89
2022/10/14 05:56:58;;;;;;;64.20;12.98;;;;;;;;;;4997545;28;20129;-89
2022/10/14 05:59:24;;;;;;;123.85;17.92;;;;;;;;;;5007777;28;20037;-90
2022/10/14 06:01:50;;;;;;;114.68;15.20;;;;;;;;;;5009715;28;20026;-89
2022/10/14 06:04:20;;;;;;;91.82;14.10;;;;;;;;;;5024232;28;20127;-89
2022/10/14 06:06:46;;;;;;;99.97;16.23;;;;;;;;;;5007735;28;20044;-89
2022/10/14 06:09:12;;;;;;;62.95;12.18;;;;;;;;;;5007860;28;20835;-89
2022/10/14 06:11:39;;;;;;;98.70;14.30;;;;;;;;;;5024383;28;20034;-90
2022/10/14 06:14:05;;;;;;;81.18;15.02;;;;;;;;;;5021232;28;20469;-90
2022/10/14 06:16:31;;;;;;;61.60;12.40;;;;;;;;;;4994065;28;20521;-89
2022/10/14 06:18:57;;;;;;;75.82;12.10;;;;;;;;;;4992971;28;20045;-90
2022/10/14 06:21:23;;;;;;;66.45;13.68;;;;;;;;;;4994417;28;20042;-90
2022/10/14 06:23:49;;;;;;;76.75;13.75;;;;;;;;;;4992802;28;20037;-90
2022/10/14 06:26:15;;;;;;;71.05;13.45;;;;;;;;;;5011942;28;20034;-89
2022/10/14 06:28:41;;;;;;;73.32;14.07;;;;;;;;;;5006492;28;20648;-89
2022/10/14 06:31:07;;;;;;;92.13;15.02;;;;;;;;;;5006667;28;20096;-90
2022/10/14 06:33:33;;;;;;;64.10;14.60;;;;;;;;;;5007221;28;22087;-89
2022/10/14 06:36:01;;;;;;;89.57;16.63;;;;;;;;;;4990059;28;20545;-89
2022/10/14 06:38:27;;;;;;;82.70;14.18;;;;;;;;;;5000739;28;20474;-89
2022/10/14 06:40:54;;;;;;;117.55;17.33;;;;;;;;;;4990485;28;20559;-89
2022/10/14 06:43:21;;;;;;;91.55;16.67;;;;;;;;;;5007306;28;20064;-90
2022/10/14 06:45:47;;;;;;;71.07;15.38;;;;;;;;;;5024560;28;20033;-89
2022/10/14 06:48:13;;;;;;;132.52;19.08;;;;;;;;;;5011830;28;20120;-90
2022/10/14 06:50:39;;;;;;;95.55;19.48;;;;;;;;;;5006652;28;20150;-89
2022/10/14 06:53:06;;;;;;;103.72;17.60;;;;;;;;;;5009389;28;20030;-90
2022/10/14 06:55:32;;;;;;;104.35;17.55;;;;;;;;;;5002951;28;20124;-90
2022/10/14 06:57:58;;;;;;;103.80;17.42;;;;;;;;;;4996262;28;20030;-90
2022/10/14 07:00:24;;;;;;;110.35;16.98;;;;;;;;;;5009429;28;20041;-89
2022/10/14 07:02:50;;;;;;;78.38;17.15;;;;;;;;;;5007125;28;20057;-89
2022/10/14 07:05:16;;;;;;;76.15;16.52;;;;;;;;;;5008290;28;21817;-89
2022/10/14 07:07:42;;;;;;;98.13;18.20;;;;;;;;;;5012999;28;20986;-89
2022/10/14 07:10:08;;;;;;;96.60;14.05;;;;;;;;;;4996745;28;20530;-89
2022/10/14 07:12:34;;;;;;;120.53;17.20;;;;;;;;;;5008276;28;20511;-90
2022/10/14 07:15:00;;;;;;;101.40;18.75;;;;;;;;;;4995374;28;20045;-89
2022/10/14 07:17:27;;;;;;;98.95;19.60;;;;;;;;;;4994734;28;20517;-89
2022/10/14 07:19:53;;;;;;;102.95;17.00;;;;;;;;;;4992489;28;20108;-89
2022/10/14 07:22:19;;;;;;;109.45;19.75;;;;;;;;;;5010921;28;20040;-89
2022/10/14 07:24:45;;;;;;;110.70;20.00;;;;;;;;;;4994949;28;20034;-89
2022/10/14 07:27:11;;;;;;;113.40;21.77;;;;;;;;;;5025211;28;20041;-90
2022/10/14 07:29:37;;;;;;;122.65;21.38;;;;;;;;;;5006374;28;20087;-89
2022/10/14 07:32:03;;;;;;;84.13;17.35;;;;;;;;;;5005936;28;20742;-89
2022/10/14 07:34:30;;;;;;;73.47;16.98;;;;;;;;;;5007510;28;20567;-91
2022/10/14 07:36:56;;;;;;;74.70;17.52;;;;;;;;;;5029717;28;20684;-91
2022/10/14 07:39:22;;;;;;;117.45;22.13;;;;;;;;;;4993421;28;20037;-91
2022/10/14 07:41:48;;;;;;;115.95;17.83;;;;;;;;;;4998746;28;20042;-90
2022/10/14 07:44:15;;;;;;;93.45;18.20;;;;;;;;;;5029211;28;20050;-90
2022/10/14 07:46:43;;;;;;;113.82;20.88;;;;;;;;;;5011996;28;20035;-89
2022/10/14 07:49:15;;;;;;;98.63;16.98;;;;;;;;;;5011712;28;20038;-89
2022/10/14 07:51:42;;;;;;;91.97;20.45;;;;;;;;;;5015638;28;20026;-90
2022/10/14 07:54:09;;;;;;;100.10;19.23;;;;;;;;;;5028190;28;20068;-89
2022/10/14 07:56:49;;;;;;;82.88;18.73;;;;;;;;;;4996300;28;20064;-89
2022/10/14 07:59:16;;;;;;;90.60;19.00;;;;;;;;;;5014900;28;20068;-89
2022/10/14 08:01:42;;;;;;;91.95;20.17;;;;;;;;;;4987769;28;20033;-89
2022/10/14 08:04:10;;;;;;;103.22;19.77;;;;;;;;;;5008214;28;20053;-89
2022/10/14 08:06:36;;;;;;;105.85;21.13;;;;;;;;;;5022465;28;20120;-89
2022/10/14 08:09:04;;;;;;;110.35;22.75;;;;;;;;;;4995617;28;20076;-89
2022/10/14 08:11:30;;;;;;;114.47;23.58;;;;;;;;;;5006992;28;20792;-89
2022/10/14 08:13:57;;;;;;;94.93;20.98;;;;;;;;;;5018842;28;20472;-89
2022/10/14 08:16:28;;;;;;;97.57;22.98;;;;;;;;;;5012815;28;20036;-88
2022/10/14 08:18:58;;;;;;;100.60;22.65;;;;;;;;;;5024972;28;20037;-89
2022/10/14 08:21:24;;;;;;;90.50;21.42;;;;;;;;;;5021688;28;20026;-89
2022/10/14 08:23:51;;;;;;;83.60;21.05;;;;;;;;;;5019805;28;20093;-89
2022/10/14 08:26:26;;;;;;;83.20;22.02;;;;;;;;;;4998645;28;20044;-88
2022/10/14 08:28:52;;;;;;;89.47;22.88;;;;;;;;;;5004065;28;20725;-89
2022/10/14 08:31:19;;;;;;;70.28;20.45;;;;;;;;;;5004202;28;20026;-89
2022/10/14 08:33:45;;;;;;;86.47;22.17;;;;;;;;;;5005935;28;20037;-89
2022/10/14 08:36:11;;;;;;;79.88;22.00;;;;;;;;;;5001193;28;20050;-89
2022/10/14 08:38:37;;;;;;;74.85;22.10;;;;;;;;;;5005004;28;20112;-90
2022/10/14 08:41:15;;;;;;;76.05;19.98;;;;;;;;;;5003291;28;20033;-89
2022/10/14 08:44:01;;;;;;;65.10;19.30;;;;;;;;;;5003982;28;20108;-90
2022/10/14 08:46:33;;;;;;;67.28;20.55;;;;;;;;;;4999367;28;20038;-90
2022/10/14 08:49:02;;;;;;;79.07;21.75;;;;;;;;;;5002647;28;20045;-90
2022/10/14 08:51:29;;;;;;;80.03;21.52;;;;;;;;;;5003738;28;20033;-91
2022/10/14 08:53:58;;;;;;;66.22;21.75;;;;;;;;;;5003759;28;20026;-91
2022/10/14 08:56:25;;;;;;;65.93;20.83;;;;;;;;;;5019767;28;20116;-91
2022/10/14 08:58:53;;;;;;;61.55;19.95;;;;;;;;;;5009264;28;20046;-91
2022/10/14 09:01:32;;;;;;;73.70;22.13;;;;;;;;;;5008032;28;20025;-90
2022/10/14 09:04:12;;;;;;;62.42;21.35;;;;;;;;;;5006697;28;20088;-90
2022/10/14 09:06:40;;;;;;;69.95;20.15;;;;;;;;;;5007966;28;20029;-90
2022/10/14 09:09:09;;;;;;;62.97;20.13;;;;;;;;;;5012066;28;20048;-90
2022/10/14 09:11:38;;;;;;;46.42;18.92;;;;;;;;;;5025245;28;20567;-90
2022/10/14 09:14:06;;;;;;;51.70;18.83;;;;;;;;;;5002160;28;20026;-90
2022/10/14 09:16:34;;;;;;;55.33;19.63;;;;;;;;;;5009259;28;20056;-90
2022/10/14 09:19:05;;;;;;;57.83;20.48;;;;;;;;;;5025759;28;20061;-90
2022/10/14 09:21:33;;;;;;;53.80;17.65;;;;;;;;;;5023299;28;20097;-90
2022/10/14 09:24:08;;;;;;;59.00;19.65;;;;;;;;;;5023058;28;20450;-90
2022/10/14 09:26:41;;;;;;;53.37;19.67;;;;;;;;;;5008691;28;20127;-89
2022/10/14 09:29:27;;;;;;;54.65;18.60;;;;;;;;;;5004516;28;21298;-89
2022/10/14 09:31:56;;;;;;;52.35;20.30;;;;;;;;;;5008117;28;20036;-90
2022/10/14 09:34:29;;;;;;;48.28;19.63;;;;;;;;;;5010764;28;20116;-90
2022/10/14 09:36:58;;;;;;;50.95;18.98;;;;;;;;;;5003599;28;20114;-89
2022/10/14 09:39:24;;;;;;;48.70;18.63;;;;;;;;;;5022244;28;20033;-90
2022/10/14 09:41:52;;;;;;;54.10;20.15;;;;;;;;;;4995693;28;20030;-90
2022/10/14 09:44:24;;;;;;;55.25;21.50;;;;;;;;;;5012501;28;20061;-89
2022/10/14 09:46:53;;;;;;;51.20;20.75;;;;;;;;;;5009081;28;20028;-89
2022/10/14 09:49:22;;;;;;;52.92;21.00;;;;;;;;;;5007018;28;20032;-89
2022/10/14 09:51:48;;;;;;;53.58;19.85;;;;;;;;;;5009321;28;20086;-89
2022/10/14 09:54:21;;;;;;;47.42;21.00;;;;;;;;;;5008042;28;20508;-90
2022/10/14 09:56:48;;;;;;;49.50;20.13;;;;;;;;;;5024992;28;20065;-90
2022/10/14 09:59:18;;;;;;;52.15;20.73;;;;;;;;;;5010138;28;20063;-89
2022/10/14 10:02:04;;;;;;;44.05;18.92;;;;;;;;;;5010401;28;20549;-89
2022/10/14 10:04:35;;;;;;;52.63;20.60;;;;;;;;;;5029080;28;21043;-90
2022/10/14 10:07:04;;;;;;;56.33;21.25;;;;;;;;;;5009935;28;20052;-89
2022/10/14 10:09:30;;;;;;;49.40;19.85;;;;;;;;;;5011610;28;20034;-90
2022/10/14 10:11:56;;;;;;;50.50;22.05;;;;;;;;;;5013946;28;20033;-89
2022/10/14 10:14:27;;;;;;;50.88;19.58;;;;;;;;;;4998441;28;20029;-89
2022/10/14 10:17:08;;;;;;;50.67;21.30;;;;;;;;;;5014444;28;20084;-90
2022/10/14 10:19:40;;;;;;;50.13;19.33;;;;;;;;;;5004361;28;20025;-89
2022/10/14 10:22:21;;;;;;;51.95;21.95;;;;;;;;;;5009883;28;20053;-89
2022/10/14 10:24:51;;;;;;;48.92;20.40;;;;;;;;;;5007033;28;20033;-89
2022/10/14 10:27:20;;;;;;;53.38;20.27;;;;;;;;;;5009950;28;20040;-89
2022/10/14 10:29:46;;;;;;;55.80;22.33;;;;;;;;;;5026135;28;20068;-89
2022/10/14 10:32:31;;;;;;;53.75;21.17;;;;;;;;;;4996892;28;20534;-89
2022/10/14 10:35:05;;;;;;;56.88;21.08;;;;;;;;;;5015255;28;20380;-90
2022/10/14 10:37:41;;;;;;;53.20;19.63;;;;;;;;;;5007593;28;20556;-89
2022/10/14 10:40:10;;;;;;;51.95;20.15;;;;;;;;;;5012951;28;20038;-90
2022/10/14 10:42:55;;;;;;;50.60;20.33;;;;;;;;;;5029736;28;20029;-90
2022/10/14 10:45:27;;;;;;;54.20;18.98;;;;;;;;;;5011801;28;20034;-90
2022/10/14 10:47:53;;;;;;;55.58;20.00;;;;;;;;;;5012751;28;20041;-89
2022/10/14 10:50:26;;;;;;;49.65;19.48;;;;;;;;;;5024394;28;20060;-89
2022/10/14 10:53:02;;;;;;;45.80;18.00;;;;;;;;;;5027762;28;20133;-89
2022/10/14 10:55:55;;;;;;;50.65;18.92;;;;;;;;;;5021363;28;20330;-89
2022/10/14 10:58:55;;;;;;;52.80;19.30;;;;;;;;;;4983919;28;20515;-90
2022/10/14 11:01:35;;;;;;;48.78;18.08;;;;;;;;;;5025934;28;20504;-89
2022/10/14 11:04:20;;;;;;;44.90;18.33;;;;;;;;;;5010544;28;20056;-89
2022/10/14 11:13:06;;;;;;;45.53;16.80;;;;;;;;;;5028780;28;20041;-89
2022/10/14 11:15:52;;;;;;;43.28;15.52;;;;;;;;;;5022461;28;20108;-89
2022/10/14 11:18:19;;;;;;;;;;;;;;;;;;5025609;28;20057;-89
2022/10/14 11:21:00;;;;;;;39.97;15.38;;;;;;;;;;5027285;28;19901;-90
2022/10/14 11:23:29;;;;;;;38.70;13.85;;;;;;;;;;5027076;28;20038;-90
2022/10/14 11:25:59;;;;;;;41.63;14.02;;;;;;;;;;5013999;28;20388;-90
2022/10/14 11:28:29;;;;;;;35.80;12.68;;;;;;;;;;5026316;28;20543;-90
2022/10/14 11:30:55;;;;;;;36.90;13.18;;;;;;;;;;5009271;28;20047;-91
2022/10/14 11:33:39;;;;;;;27.45;11.52;;;;;;;;;;5012866;28;20799;-90
2022/10/14 11:36:30;;;;;;;28.40;10.43;;;;;;;;;;5011567;28;20037;-90
2022/10/14 11:39:02;;;;;;;26.92;10.23;;;;;;;;;;5010337;28;20033;-89
2022/10/14 11:41:34;;;;;;;26.58;10.13;;;;;;;;;;5012517;28;20757;-90
2022/10/14 11:44:10;;;;;;;33.70;11.68;;;;;;;;;;5012345;28;20041;-90
2022/10/14 11:46:38;;;;;;;22.73;8.30;;;;;;;;;;5010023;28;20037;-90
2022/10/14 11:49:23;;;;;;;27.75;10.88;;;;;;;;;;5023683;28;20088;-91
2022/10/14 11:51:55;;;;;;;29.95;10.73;;;;;;;;;;5011916;28;20025;-91
2022/10/14 11:54:39;;;;;;;29.55;11.13;;;;;;;;;;5016340;28;20037;-90
2022/10/14 11:57:10;;;;;;;28.58;11.25;;;;;;;;;;5027978;28;20497;-90
2022/10/14 11:59:36;;;;;;;33.30;11.68;;;;;;;;;;5003780;28;20481;-90
2022/10/14 12:02:24;;;;;;;26.40;9.35;;;;;;;;;;5010134;28;20075;-90
2022/10/14 12:04:57;;;;;;;34.33;11.18;;;;;;;;;;5003418;28;20041;-90
2022/10/14 12:07:28;;;;;;;24.02;9.48;;;;;;;;;;5005616;28;20025;-90
2022/10/14 12:10:00;;;;;;;24.30;9.95;;;;;;;;;;5011997;28;20492;-90
2022/10/14 12:12:27;;;;;;;26.67;8.90;;;;;;;;;;5007714;28;20049;-90
2022/10/14 12:15:03;;;;;;;30.40;10.80;;;;;;;;;;5012749;28;20064;-90
2022/10/14 12:17:29;;;;;;;;;;;;;;;;;;5027428;28;20021;-90
2022/10/14 12:19:56;;;;;;;25.67;9.50;;;;;;;;;;5031231;28;19909;-90
2022/10/14 12:22:24;;;;;;;29.38;10.15;;;;;;;;;;5027633;28;20029;-90
2022/10/14 12:24:52;;;;;;;31.20;10.95;;;;;;;;;;5014902;28;20669;-90
2022/10/14 12:27:19;;;;;;;29.48;11.50;;;;;;;;;;5009200;28;20037;-89
2022/10/14 12:29:46;;;;;;;32.30;11.80;;;;;;;;;;5015337;28;20059;-90
2022/10/14 12:32:18;;;;;;;29.55;11.68;;;;;;;;;;5012166;28;20105;-90
2022/10/14 12:34:45;;;;;;;32.83;12.82;;;;;;;;;;5009529;28;20458;-90
2022/10/14 12:37:23;;;;;;;27.08;10.93;;;;;;;;;;5011333;28;20040;-90
2022/10/14 12:40:09;;;;;;;28.38;10.82;;;;;;;;;;5006815;28;20552;-90
2022/10/14 12:42:38;;;;;;;33.00;13.32;;;;;;;;;;5009515;28;20030;-90
2022/10/14 12:45:14;;;;;;;36.17;12.18;;;;;;;;;;5030413;28;20037;-90
2022/10/14 12:47:41;;;;;;;35.60;12.80;;;;;;;;;;5026991;28;20037;-90
2022/10/14 12:50:13;;;;;;;31.27;11.38;;;;;;;;;;5011567;28;20030;-90
2022/10/14 12:52:40;;;;;;;41.67;14.98;;;;;;;;;;5012276;28;20033;-91
2022/10/14 12:55:15;;;;;;;36.70;13.60;;;;;;;;;;5010233;28;20033;-90
2022/10/14 12:57:41;;;;;;;37.77;12.87;;;;;;;;;;5006732;28;20353;-93
2022/10/14 13:00:14;;;;;;;36.38;13.27;;;;;;;;;;4994420;28;21231;-91
2022/10/14 13:02:44;;;;;;;37.25;13.20;;;;;;;;;;5012165;28;21037;-91
2022/10/14 13:05:22;;;;;;;44.72;16.17;;;;;;;;;;5005222;28;20086;-91
2022/10/14 13:08:08;;;;;;;43.50;14.82;;;;;;;;;;5009531;28;20038;-91
2022/10/14 13:10:37;;;;;;;38.10;13.98;;;;;;;;;;5026479;28;20030;-91
2022/10/14 13:13:23;;;;;;;41.75;14.38;;;;;;;;;;5008598;28;20037;-91
2022/10/14 13:15:51;;;;;;;43.10;14.27;;;;;;;;;;4999925;28;20034;-90
2022/10/14 13:18:33;;;;;;;48.15;14.40;;;;;;;;;;5023723;28;20098;-90
2022/10/14 13:20:59;;;;;;;39.92;13.82;;;;;;;;;;5013571;28;20135;-91
2022/10/14 13:23:25;;;;;;;46.30;14.77;;;;;;;;;;5028306;28;20036;-91
2022/10/14 13:25:52;;;;;;;48.80;15.95;;;;;;;;;;5027571;28;20030;-90
2022/10/14 13:28:28;;;;;;;49.67;15.18;;;;;;;;;;5013244;28;20098;-90
2022/10/14 13:30:54;;;;;;;;;;;;;;;;;;5014948;28;20169;-91
2022/10/14 13:33:31;;;;;;;45.92;15.70;;;;;;;;;;5010105;28;19948;-91
2022/10/14 13:36:00;;;;;;;56.42;17.17;;;;;;;;;;5023658;28;20025;-91
2022/10/14 13:38:27;;;;;;;51.88;16.20;;;;;;;;;;5030610;28;20065;-91
2022/10/14 13:40:54;;;;;;;54.75;17.13;;;;;;;;;;5016372;28;20040;-91
2022/10/14 13:43:27;;;;;;;60.78;19.85;;;;;;;;;;5009919;28;20116;-90
2022/10/14 13:45:56;;;;;;;53.35;18.45;;;;;;;;;;5016603;28;20037;-91
2022/10/14 13:48:42;;;;;;;73.70;21.63;;;;;;;;;;5012481;28;20032;-91
2022/10/14 13:51:14;;;;;;;85.00;25.50;;;;;;;;;;5012244;28;20132;-91
2022/10/14 13:53:53;;;;;;;81.13;26.40;;;;;;;;;;5013947;28;20029;-91
2022/10/14 13:56:30;;;;;;;87.90;25.42;;;;;;;;;;5001227;28;20033;-91
2022/10/14 13:58:56;;;;;;;85.03;27.52;;;;;;;;;;5017515;28;20053;-91
2022/10/14 14:01:32;;;;;;;80.88;27.02;;;;;;;;;;5011394;28;20037;-91
2022/10/14 14:03:59;;;;;;;89.25;25.65;;;;;;;;;;5030033;28;20031;-91
2022/10/14 14:06:26;;;;;;;86.32;27.48;;;;;;;;;;5012551;28;20212;-91
2022/10/14 14:09:04;;;;;;;73.25;25.45;;;;;;;;;;4998181;28;20477;-91
2022/10/14 14:11:32;;;;;;;88.28;27.42;;;;;;;;;;5015040;28;20025;-91
2022/10/14 14:14:13;;;;;;;87.15;24.85;;;;;;;;;;5023865;28;20095;-91
2022/10/14 14:16:52;;;;;;;79.88;25.70;;;;;;;;;;5011661;28;20021;-90
2022/10/14 14:19:19;;;;;;;79.93;26.27;;;;;;;;;;5007083;28;20160;-89
2022/10/14 14:21:45;;;;;;;72.50;23.67;;;;;;;;;;4992855;28;20041;-90
2022/10/14 14:24:19;;;;;;;88.05;28.77;;;;;;;;;;4996209;28;20037;-91
2022/10/14 14:26:45;;;;;;;91.13;30.08;;;;;;;;;;5027990;28;20496;-91
2022/10/14 14:29:16;;;;;;;81.45;28.05;;;;;;;;;;4992326;28;20052;-91
2022/10/14 14:31:43;;;;;;;94.85;28.88;;;;;;;;;;5009073;28;20057;-91
2022/10/14 14:34:13;;;;;;;77.25;25.98;;;;;;;;;;5009429;28;20500;-92